createdAt,value
2023-04-12T00:04:16.506Z,15.69
2023-04-12T00:09:21.243Z,15.35
2023-04-12T00:14:24.414Z,15.35
2023-04-12T00:19:27.878Z,15.50
2023-04-12T00:24:32.438Z,15.48
2023-04-12T00:29:35.898Z,15.43
2023-04-12T00:34:39.063Z,15.23
2023-04-12T00:39:44.260Z,15.43
2023-04-12T00:44:47.412Z,15.67
2023-04-12T00:49:50.627Z,15.41
2023-04-12T00:54:55.442Z,15.70
2023-04-12T00:59:58.278Z,15.47
2023-04-12T01:05:01.933Z,15.46
2023-04-12T01:10:11.012Z,15.43
2023-04-12T01:15:16.984Z,15.43
2023-04-12T01:20:24.840Z,15.43
2023-04-12T01:25:40.497Z,15.28
2023-04-12T01:30:47.265Z,15.54
2023-04-12T01:35:52.935Z,15.53
2023-04-12T01:40:56.969Z,15.51
2023-04-12T01:46:01.564Z,15.46
2023-04-12T01:51:07.730Z,15.34
2023-04-12T01:56:12.961Z,15.26
2023-04-12T02:01:19.265Z,14.96
2023-04-12T02:06:24.282Z,15.10
2023-04-12T02:11:27.166Z,15.13
2023-04-12T02:16:32.639Z,15.27
2023-04-12T02:21:41.429Z,15.32
2023-04-12T02:26:44.680Z,15.34
2023-04-12T02:31:49.320Z,15.35
2023-04-12T02:36:52.693Z,15.15
2023-04-12T02:41:56.954Z,15.03
2023-04-12T02:47:01.700Z,15.00
2023-04-12T02:52:05.116Z,15.19
2023-04-12T02:57:08.489Z,15.30
2023-04-12T03:02:13.229Z,15.29
2023-04-12T03:07:16.479Z,15.36
2023-04-12T03:12:19.754Z,15.35
2023-04-12T03:17:24.620Z,15.25
2023-04-12T03:22:27.569Z,15.18
2023-04-12T03:27:30.767Z,15.08
2023-04-12T03:32:35.858Z,14.91
2023-04-12T03:37:44.154Z,15.09
2023-04-12T03:42:47.422Z,14.91
2023-04-12T03:47:52.067Z,15.06
2023-04-12T03:52:55.408Z,14.90
2023-04-12T03:57:58.681Z,14.86
2023-04-12T04:03:05.404Z,14.98
2023-04-12T04:08:09.150Z,14.97
2023-04-12T04:13:12.460Z,14.98
2023-04-12T04:18:17.113Z,15.15
2023-04-12T04:23:20.322Z,15.27
2023-04-12T04:28:23.611Z,15.28
2023-04-12T04:33:28.399Z,15.40
2023-04-12T04:38:33.017Z,15.13
2023-04-12T04:43:40.101Z,15.03
2023-04-12T04:48:44.960Z,15.14
2023-04-12T04:53:48.242Z,15.17
2023-04-12T04:58:51.483Z,15.11
2023-04-12T05:03:57.006Z,15.15
2023-04-12T05:09:01.734Z,15.11
2023-04-12T05:14:05.015Z,15.10
2023-04-12T05:19:09.648Z,15.14
2023-04-12T05:24:12.870Z,15.00
2023-04-12T05:29:16.256Z,15.16
2023-04-12T05:34:20.912Z,15.06
2023-04-12T05:39:24.220Z,15.10
2023-04-12T05:44:27.486Z,15.03
2023-04-12T05:49:32.522Z,15.21
2023-04-12T05:54:35.760Z,15.21
2023-04-12T05:59:39.030Z,15.27
2023-04-12T06:04:50.752Z,15.23
2023-04-12T06:09:54.967Z,15.24
2023-04-12T06:14:58.332Z,15.08
2023-04-12T06:20:04.633Z,15.13
2023-04-12T06:25:09.367Z,15.08
2023-04-12T06:30:13.174Z,15.16
2023-04-12T06:35:18.457Z,15.33
2023-04-12T06:40:21.860Z,15.32
2023-04-12T06:45:25.264Z,15.42
2023-04-12T06:50:29.871Z,15.51
2023-04-12T06:55:33.374Z,15.37
2023-04-12T07:00:36.704Z,15.45
2023-04-12T07:05:41.610Z,15.49
2023-04-12T07:10:44.647Z,15.48
2023-04-12T07:15:48.191Z,15.72
2023-04-12T07:20:57.689Z,15.89
2023-04-12T07:26:01.885Z,15.84
2023-04-12T07:31:07.137Z,15.83
2023-04-12T07:36:12.790Z,15.66
2023-04-12T07:41:16.091Z,15.56
2023-04-12T07:46:19.410Z,15.60
2023-04-12T07:51:24.135Z,15.58
2023-04-12T07:56:27.462Z,15.60
2023-04-12T08:01:31.290Z,15.61
2023-04-12T08:06:35.941Z,15.68
2023-04-12T08:11:40.321Z,15.67
2023-04-12T08:16:43.544Z,15.62
2023-04-12T08:21:48.170Z,15.67
2023-04-12T08:26:52.292Z,15.74
2023-04-12T08:31:56.564Z,15.67
2023-04-12T08:37:01.215Z,15.56
2023-04-12T08:42:06.033Z,15.62
2023-04-12T08:47:10.949Z,15.36
2023-04-12T08:52:15.740Z,15.34
2023-04-12T08:57:20.564Z,15.26
2023-04-12T09:02:24.100Z,15.21
2023-04-12T09:07:30.762Z,14.90
2023-04-12T09:12:34.052Z,14.96
2023-04-12T09:17:39.277Z,14.74
2023-04-12T09:22:45.458Z,14.70
2023-04-12T09:27:49.193Z,14.68
2023-04-12T09:32:53.723Z,14.49
2023-04-12T09:38:08.231Z,14.36
2023-04-12T09:43:11.495Z,14.55
2023-04-12T09:48:20.743Z,14.58
2023-04-12T09:53:26.855Z,14.52
2023-04-12T09:58:33.037Z,14.27
2023-04-12T10:03:37.336Z,14.18
2023-04-12T10:08:43.208Z,14.05
2023-04-12T10:13:46.760Z,14.27
2023-04-12T10:18:52.650Z,14.31
2023-04-12T10:23:57.533Z,14.46
2023-04-12T10:29:30.821Z,14.33
2023-04-12T10:34:34.102Z,14.67
2023-04-12T10:39:43.258Z,14.83
2023-04-12T10:44:46.636Z,14.80
2023-04-12T10:50:24.815Z,14.87
2023-04-12T10:55:33.484Z,15.03
2023-04-12T11:01:11.709Z,15.11
2023-04-12T11:06:26.907Z,15.15
2023-04-12T11:11:36.140Z,15.16
2023-04-12T11:17:12.639Z,14.66
2023-04-12T11:22:17.531Z,14.92
2023-04-12T11:27:23.132Z,15.02
2023-04-12T11:32:27.766Z,14.99
2023-04-12T11:37:32.062Z,14.91
2023-04-12T11:42:37.021Z,15.00
2023-04-12T11:47:43.812Z,15.32
2023-04-12T11:52:47.033Z,15.62
2023-04-12T11:57:56.033Z,15.84
2023-04-12T12:03:07.665Z,15.99
2023-04-12T12:08:12.066Z,15.93
2023-04-12T12:13:17.539Z,15.94
2023-04-12T12:18:21.300Z,16.19
2023-04-12T12:23:31.688Z,16.42
2023-04-12T12:28:39.720Z,16.46
2023-04-12T12:33:47.033Z,16.25
2023-04-12T12:38:54.567Z,16.14
2023-04-12T12:43:59.431Z,15.64
2023-04-12T12:49:02.790Z,15.73
2023-04-12T12:54:07.882Z,15.68
2023-04-12T12:59:12.446Z,15.52
2023-04-12T13:04:15.633Z,15.30
2023-04-12T13:09:18.774Z,15.14
2023-04-12T13:14:23.279Z,14.95
2023-04-12T13:19:26.397Z,15.07
2023-04-12T13:24:29.606Z,15.18
2023-04-12T13:29:34.143Z,15.29
2023-04-12T13:34:37.672Z,15.27
2023-04-12T13:39:41.348Z,15.33
2023-04-12T13:44:45.960Z,15.61
2023-04-12T13:49:49.145Z,15.91
2023-04-12T13:54:52.274Z,16.49
2023-04-12T13:59:56.804Z,17.26
2023-04-12T14:05:00.433Z,17.47
2023-04-12T14:10:03.859Z,18.14
2023-04-12T14:15:09.752Z,18.38
2023-04-12T14:20:13.506Z,18.39
2023-04-12T14:25:16.741Z,18.15
2023-04-12T14:30:21.300Z,18.01
2023-04-12T14:35:24.155Z,17.47
2023-04-12T14:40:27.583Z,17.53
2023-04-12T14:45:32.202Z,17.56
2023-04-12T14:50:35.106Z,17.31
2023-04-12T14:55:38.224Z,17.30
2023-04-12T15:00:42.762Z,17.15
2023-04-12T15:05:46.040Z,17.65
2023-04-12T15:10:49.176Z,17.55
2023-04-12T15:15:53.743Z,17.67
2023-04-12T15:21:00.436Z,17.93
2023-04-12T15:26:06.671Z,17.85
2023-04-12T15:31:12.054Z,17.45
2023-04-12T15:36:16.769Z,17.49
2023-04-12T15:41:19.903Z,17.46
2023-04-12T15:46:25.650Z,17.37
2023-04-12T15:51:29.260Z,17.96
2023-04-12T15:56:32.678Z,17.70
2023-04-12T16:01:38.154Z,17.34
2023-04-12T16:06:41.361Z,17.36
2023-04-12T16:11:46.661Z,17.19
2023-04-12T16:16:51.621Z,17.30
2023-04-12T16:21:54.746Z,16.97
2023-04-12T16:26:57.874Z,16.95
2023-04-12T16:32:02.612Z,16.73
2023-04-12T16:37:05.557Z,16.70
2023-04-12T16:42:08.677Z,16.72
2023-04-12T16:47:13.388Z,16.69
2023-04-12T16:52:16.649Z,16.51
2023-04-12T16:57:19.782Z,16.52
2023-04-12T17:02:24.988Z,16.53
2023-04-12T17:07:28.486Z,16.42
2023-04-12T17:12:31.618Z,16.36
2023-04-12T17:17:36.269Z,16.39
2023-04-12T17:22:39.549Z,16.37
2023-04-12T17:27:42.721Z,16.05
2023-04-12T17:32:48.700Z,16.13
2023-04-12T17:37:52.679Z,15.96
2023-04-12T17:42:56.078Z,15.77
2023-04-12T17:48:00.697Z,16.01
2023-04-12T17:53:03.902Z,15.87
2023-04-12T17:58:07.065Z,15.77
2023-04-12T18:03:13.314Z,15.64
2023-04-12T18:08:16.725Z,15.58
2023-04-12T18:13:19.929Z,15.48
2023-04-12T18:18:24.470Z,15.27
2023-04-12T18:23:27.661Z,15.16
2023-04-12T18:28:31.901Z,15.10
2023-04-12T18:33:36.445Z,14.97
2023-04-12T18:38:39.633Z,15.00
2023-04-12T18:43:42.840Z,14.75
2023-04-12T18:48:48.189Z,14.80
2023-04-12T18:53:51.724Z,14.70
2023-04-12T18:58:56.342Z,14.56
2023-04-12T19:04:04.523Z,14.51
2023-04-12T19:09:09.015Z,14.35
2023-04-12T19:14:12.227Z,14.18
2023-04-12T19:19:16.951Z,14.17
2023-04-12T19:24:20.189Z,14.16
2023-04-12T19:29:24.577Z,14.05
2023-04-12T19:34:29.344Z,13.97
2023-04-12T19:39:32.993Z,13.90
2023-04-12T19:44:38.269Z,13.96
2023-04-12T19:49:44.522Z,13.80
2023-04-12T19:54:47.858Z,13.60
2023-04-12T19:59:52.016Z,13.29
2023-04-12T20:04:56.818Z,12.84
2023-04-12T20:10:00.650Z,12.84
2023-04-12T20:15:04.562Z,12.66
2023-04-12T20:20:11.274Z,12.57
2023-04-12T20:25:14.853Z,12.44
2023-04-12T20:30:18.176Z,12.14
2023-04-12T20:35:23.106Z,12.13
2023-04-12T20:40:28.322Z,12.10
2023-04-12T20:45:31.627Z,12.11
2023-04-12T20:50:36.328Z,11.91
2023-04-12T20:55:39.635Z,12.08
2023-04-12T21:00:43.127Z,12.22
2023-04-12T21:05:50.643Z,12.17
2023-04-12T21:10:53.960Z,12.09
2023-04-12T21:15:58.917Z,12.02
2023-04-12T21:21:03.904Z,11.98
2023-04-12T21:26:07.561Z,12.06
2023-04-12T21:31:11.461Z,11.76
2023-04-12T21:36:16.078Z,11.89
2023-04-12T21:41:19.296Z,11.85
2023-04-12T21:46:27.575Z,11.75
2023-04-12T21:51:32.965Z,11.66
2023-04-12T21:56:36.467Z,11.55
2023-04-12T22:01:39.829Z,11.57
2023-04-12T22:06:44.833Z,11.46
2023-04-12T22:11:49.279Z,11.62
2023-04-12T22:16:53.443Z,11.50
2023-04-12T22:21:58.280Z,11.32
2023-04-12T22:27:01.482Z,11.32
2023-04-12T22:32:04.781Z,11.38
2023-04-12T22:37:09.378Z,11.52
2023-04-12T22:42:14.246Z,11.34
2023-04-12T22:47:17.487Z,11.14
2023-04-12T22:52:23.124Z,11.06
2023-04-12T22:57:26.661Z,10.91
2023-04-12T23:02:30.004Z,11.13
2023-04-12T23:07:34.791Z,11.06
2023-04-12T23:12:39.231Z,11.03
2023-04-12T23:17:42.600Z,10.92
2023-04-12T23:22:57.375Z,10.98
2023-04-12T23:28:01.345Z,11.12
2023-04-12T23:33:04.578Z,11.14
2023-04-12T23:38:10.330Z,10.98
2023-04-12T23:43:13.594Z,10.91
2023-04-12T23:48:17.685Z,10.94
2023-04-12T23:53:22.767Z,11.02
2023-04-12T23:58:26.740Z,10.99
